createdAt,value
2019-03-09T00:02:16.036Z,99339.13
2019-03-09T00:04:47.549Z,99333.53
2019-03-09T00:07:19.506Z,99333.53
2019-03-09T00:09:51.256Z,99333.33
2019-03-09T00:12:22.942Z,99330.05
2019-03-09T00:14:54.550Z,99336.84
2019-03-09T00:17:26.073Z,99339.48
2019-03-09T00:19:59.534Z,99342.00
2019-03-09T00:22:31.038Z,99339.17
2019-03-09T00:25:10.975Z,99351.66
2019-03-09T00:27:53.925Z,99340.53
2019-03-09T00:30:39.927Z,99340.53
2019-03-09T00:33:11.636Z,99349.30
2019-03-09T00:35:43.373Z,99349.30
2019-03-09T00:38:15.139Z,99356.16
2019-03-09T00:40:48.076Z,99358.19
2019-03-09T00:43:19.574Z,99363.75
2019-03-09T00:45:51.379Z,99363.75
2019-03-09T00:48:22.970Z,99387.82
2019-03-09T00:50:54.232Z,99387.82
2019-03-09T00:53:25.991Z,99382.97
2019-03-09T00:55:57.321Z,99374.67
2019-03-09T00:58:29.001Z,99374.67
2019-03-09T01:01:00.561Z,99378.26
2019-03-09T01:03:32.444Z,99378.26
2019-03-09T01:06:03.860Z,99374.13
2019-03-09T01:08:35.807Z,99389.83
2019-03-09T01:11:07.465Z,99389.83
2019-03-09T01:13:39.362Z,99389.04
2019-03-09T01:16:11.098Z,99405.37
2019-03-09T01:18:42.734Z,99407.91
2019-03-09T01:21:14.499Z,99407.91
2019-03-09T01:23:46.458Z,99410.64
2019-03-09T01:26:18.434Z,99420.65
2019-03-09T01:28:50.359Z,99425.59
2019-03-09T01:31:22.068Z,99425.59
2019-03-09T01:33:54.785Z,99431.48
2019-03-09T01:36:26.926Z,99436.87
2019-03-09T01:38:58.455Z,99436.33
2019-03-09T01:41:30.087Z,99436.33
2019-03-09T01:44:01.761Z,99436.21
2019-03-09T01:46:33.399Z,99436.21
2019-03-09T01:49:05.347Z,99434.70
2019-03-09T01:51:37.034Z,99445.34
2019-03-09T01:54:08.950Z,99445.34
2019-03-09T01:56:40.443Z,99461.69
2019-03-09T01:59:12.325Z,99474.90
2019-03-09T02:01:44.157Z,99474.90
2019-03-09T02:04:16.108Z,99477.91
2019-03-09T02:06:47.675Z,99462.77
2019-03-09T02:09:20.327Z,99459.70
2019-03-09T02:11:52.226Z,99459.70
2019-03-09T02:14:24.214Z,99471.81
2019-03-09T02:16:56.022Z,99473.51
2019-03-09T02:19:27.964Z,99492.33
2019-03-09T02:21:59.863Z,99489.75
2019-03-09T02:24:31.968Z,99490.15
2019-03-09T02:27:03.311Z,99490.15
2019-03-09T02:29:35.062Z,99498.47
2019-03-09T02:32:06.862Z,99506.23
2019-03-09T02:34:38.436Z,99503.02
2019-03-09T02:37:10.262Z,99503.02
2019-03-09T02:39:52.939Z,99514.29
2019-03-09T02:42:24.253Z,99514.29
2019-03-09T02:44:55.961Z,99515.35
2019-03-09T02:47:27.605Z,99513.20
2019-03-09T02:49:59.331Z,99513.20
2019-03-09T02:52:30.967Z,99519.77
2019-03-09T02:55:02.613Z,99520.56
2019-03-09T02:57:34.292Z,99527.08
2019-03-09T03:00:08.288Z,99529.08
2019-03-09T03:02:43.596Z,99534.98
2019-03-09T03:05:15.906Z,99536.03
2019-03-09T03:07:48.563Z,99533.83
2019-03-09T03:10:20.444Z,99540.34
2019-03-09T03:12:52.423Z,99530.77
2019-03-09T03:15:34.557Z,99540.14
2019-03-09T03:18:06.840Z,99535.64
2019-03-09T03:20:38.258Z,99535.64
2019-03-09T03:23:10.045Z,99540.30
2019-03-09T03:25:41.393Z,99537.42
2019-03-09T03:28:13.203Z,99542.51
2019-03-09T03:30:44.685Z,99551.91
2019-03-09T03:33:16.638Z,99555.73
2019-03-09T03:35:48.478Z,99556.48
2019-03-09T03:38:20.541Z,99557.16
2019-03-09T03:40:52.827Z,99564.62
2019-03-09T03:43:24.228Z,99564.62
2019-03-09T03:45:56.174Z,99559.23
2019-03-09T03:48:27.936Z,99562.29
2019-03-09T03:50:59.305Z,99563.77
2019-03-09T03:53:31.314Z,99572.51
2019-03-09T03:56:02.875Z,99568.86
2019-03-09T03:58:34.963Z,99568.86
2019-03-09T04:01:06.935Z,99568.84
2019-03-09T04:03:38.791Z,99571.00
2019-03-09T04:06:11.848Z,99571.20
2019-03-09T04:08:44.206Z,99571.20
2019-03-09T04:11:16.550Z,99564.86
2019-03-09T04:13:49.610Z,99560.27
2019-03-09T04:16:21.231Z,99560.27
2019-03-09T04:18:53.067Z,99564.32
2019-03-09T04:21:24.690Z,99566.45
2019-03-09T04:23:56.563Z,99566.45
2019-03-09T04:26:28.398Z,99569.56
2019-03-09T04:29:00.464Z,99569.56
2019-03-09T04:31:32.255Z,99571.38
2019-03-09T04:34:04.286Z,99566.51
2019-03-09T04:36:35.930Z,99570.80
2019-03-09T04:39:08.133Z,99570.80
2019-03-09T04:41:40.425Z,99562.10
2019-03-09T04:44:12.183Z,99562.53
2019-03-09T04:46:44.069Z,99562.53
2019-03-09T04:49:15.560Z,99564.31
2019-03-09T04:51:47.300Z,99556.12
2019-03-09T04:54:18.778Z,99544.41
2019-03-09T04:56:50.865Z,99544.41
2019-03-09T04:59:22.462Z,99547.05
2019-03-09T05:01:54.375Z,99549.92
2019-03-09T05:04:54.904Z,99549.92
2019-03-09T05:07:41.194Z,99543.04
2019-03-09T05:10:32.581Z,99543.04
2019-03-09T05:13:11.021Z,99544.98
2019-03-09T05:15:42.496Z,99552.68
2019-03-09T05:18:14.802Z,99548.89
2019-03-09T05:20:46.366Z,99546.83
2019-03-09T05:23:18.326Z,99541.72
2019-03-09T05:25:50.142Z,99541.72
2019-03-09T05:28:22.050Z,99548.86
2019-03-09T05:30:53.533Z,99538.91
2019-03-09T05:33:25.069Z,99538.91
2019-03-09T05:35:56.587Z,99546.45
2019-03-09T05:38:28.305Z,99550.98
2019-03-09T05:40:59.806Z,99550.98
2019-03-09T05:43:31.556Z,99542.22
2019-03-09T05:46:03.366Z,99540.80
2019-03-09T05:48:35.730Z,99545.40
2019-03-09T05:51:07.209Z,99545.40
2019-03-09T05:53:38.708Z,99534.30
2019-03-09T05:56:10.297Z,99529.75
2019-03-09T05:58:42.141Z,99529.28
2019-03-09T06:01:13.631Z,99521.73
2019-03-09T06:03:45.574Z,99521.73
2019-03-09T06:06:18.776Z,99523.48
2019-03-09T06:08:51.569Z,99521.91
2019-03-09T06:11:23.083Z,99521.91
2019-03-09T06:13:55.144Z,99526.54
2019-03-09T06:16:27.107Z,99513.73
2019-03-09T06:18:59.371Z,99513.73
2019-03-09T06:21:30.889Z,99516.37
2019-03-09T06:24:02.645Z,99507.86
2019-03-09T06:26:34.061Z,99507.86
2019-03-09T06:29:06.736Z,99506.98
2019-03-09T06:31:38.441Z,99494.84
2019-03-09T06:34:10.028Z,99500.70
2019-03-09T06:37:02.587Z,99489.00
2019-03-09T06:39:40.437Z,99489.00
2019-03-09T06:42:39.744Z,99489.37
2019-03-09T06:45:16.590Z,99487.42
2019-03-09T06:47:48.193Z,99485.52
2019-03-09T06:50:21.393Z,99485.49
2019-03-09T06:52:52.718Z,99485.49
2019-03-09T06:55:25.253Z,99472.86
2019-03-09T06:57:56.794Z,99471.92
2019-03-09T07:00:40.447Z,99471.92
2019-03-09T07:03:13.525Z,99463.48
2019-03-09T07:05:44.921Z,99456.62
2019-03-09T07:08:16.419Z,99457.84
2019-03-09T07:10:48.161Z,99452.23
2019-03-09T07:13:19.990Z,99445.20
2019-03-09T07:15:51.736Z,99445.20
2019-03-09T07:18:29.547Z,99445.73
2019-03-09T07:21:01.060Z,99439.27
2019-03-09T07:23:33.161Z,99430.21
2019-03-09T07:26:04.635Z,99434.67
2019-03-09T07:28:36.322Z,99434.67
2019-03-09T07:31:09.101Z,99421.59
2019-03-09T07:33:42.161Z,99421.59
2019-03-09T07:36:13.962Z,99422.97
2019-03-09T07:38:45.810Z,99422.97
2019-03-09T07:41:17.997Z,99415.24
2019-03-09T07:43:50.044Z,99409.45
2019-03-09T07:46:21.634Z,99408.77
2019-03-09T07:48:53.114Z,99407.78
2019-03-09T07:51:25.025Z,99407.78
2019-03-09T07:53:56.831Z,99398.59
2019-03-09T07:56:28.528Z,99400.23
2019-03-09T07:59:00.121Z,99400.23
2019-03-09T08:01:31.685Z,99389.64
2019-03-09T08:04:03.242Z,99389.64
2019-03-09T08:06:36.144Z,99387.16
2019-03-09T08:09:08.277Z,99382.63
2019-03-09T08:11:40.748Z,99369.36
2019-03-09T08:14:12.575Z,99369.36
2019-03-09T08:16:44.078Z,99365.84
2019-03-09T08:19:15.688Z,99355.50
2019-03-09T08:21:47.417Z,99355.50
2019-03-09T08:24:18.781Z,99353.66
2019-03-09T08:26:50.303Z,99353.66
2019-03-09T08:29:22.098Z,99348.19
2019-03-09T08:31:53.808Z,99340.02
2019-03-09T08:34:25.636Z,99334.02
2019-03-09T08:36:57.292Z,99332.12
2019-03-09T08:39:28.940Z,99332.12
2019-03-09T08:42:01.345Z,99333.88
2019-03-09T08:44:32.785Z,99329.10
2019-03-09T08:47:04.238Z,99333.41
2019-03-09T08:49:35.753Z,99326.61
2019-03-09T08:52:07.252Z,99320.34
2019-03-09T08:54:38.855Z,99320.34
2019-03-09T08:57:10.537Z,99313.79
2019-03-09T08:59:42.043Z,99313.38
2019-03-09T09:02:13.484Z,99313.48
2019-03-09T09:04:45.397Z,99305.07
2019-03-09T09:07:17.102Z,99301.08
2019-03-09T09:09:49.298Z,99297.47
2019-03-09T09:12:21.630Z,99294.58
2019-03-09T09:14:53.462Z,99294.58
2019-03-09T09:17:25.314Z,99292.12
2019-03-09T09:19:56.987Z,99290.02
2019-03-09T09:22:28.858Z,99283.15
2019-03-09T09:25:00.561Z,99283.81
2019-03-09T09:27:32.945Z,99278.38
2019-03-09T09:30:05.049Z,99272.11
2019-03-09T09:32:37.247Z,99270.59
2019-03-09T09:35:10.235Z,99270.59
2019-03-09T09:37:42.352Z,99264.38
2019-03-09T09:40:17.295Z,99268.02
2019-03-09T09:42:49.587Z,99268.02
2019-03-09T09:45:21.711Z,99259.88
2019-03-09T09:47:54.312Z,99259.41
2019-03-09T09:50:29.056Z,99259.41
2019-03-09T09:53:01.412Z,99257.05
2019-03-09T09:55:33.337Z,99265.23
2019-03-09T09:58:05.266Z,99256.80
2019-03-09T10:00:38.130Z,99256.80
2019-03-09T10:03:12.029Z,99259.81
2019-03-09T10:05:44.655Z,99259.81
2019-03-09T10:08:16.413Z,99262.28
2019-03-09T10:10:48.584Z,99256.51
2019-03-09T10:13:20.351Z,99256.51
2019-03-09T10:15:52.221Z,99262.33
2019-03-09T10:18:24.030Z,99262.33
2019-03-09T10:20:55.502Z,99255.00
2019-03-09T10:23:27.478Z,99258.08
2019-03-09T10:26:00.050Z,99255.55
2019-03-09T10:28:32.088Z,99255.55
2019-03-09T10:31:05.483Z,99252.05
2019-03-09T10:33:36.949Z,99260.48
2019-03-09T10:36:08.769Z,99259.92
2019-03-09T10:38:41.167Z,99252.18
2019-03-09T10:41:13.426Z,99254.30
2019-03-09T10:43:46.487Z,99254.30
2019-03-09T10:46:18.798Z,99256.87
2019-03-09T10:48:51.036Z,99252.77
2019-03-09T10:51:22.814Z,99252.77
2019-03-09T10:53:54.681Z,99246.75
2019-03-09T10:56:28.088Z,99246.94
2019-03-09T10:58:59.803Z,99245.25
2019-03-09T11:01:31.329Z,99245.00
2019-03-09T11:04:04.878Z,99243.28
2019-03-09T11:06:36.527Z,99244.64
2019-03-09T11:09:08.995Z,99242.86
2019-03-09T11:11:41.278Z,99246.81
2019-03-09T11:14:13.131Z,99250.23
2019-03-09T11:16:44.689Z,99250.55
2019-03-09T11:19:16.403Z,99249.43
2019-03-09T11:21:47.997Z,99254.28
2019-03-09T11:24:19.531Z,99261.45
2019-03-09T11:26:51.007Z,99255.13
2019-03-09T11:29:23.145Z,99252.88
2019-03-09T11:31:54.934Z,99252.88
2019-03-09T11:34:26.538Z,99257.69
2019-03-09T11:36:58.207Z,99259.05
2019-03-09T11:39:29.795Z,99267.30
2019-03-09T11:42:01.577Z,99261.09
2019-03-09T11:44:33.086Z,99261.09
2019-03-09T11:47:04.914Z,99263.38
2019-03-09T11:49:36.810Z,99266.92
2019-03-09T11:52:16.297Z,99267.25
2019-03-09T11:54:42.574Z,99267.25
2019-03-09T11:57:14.467Z,99270.73
2019-03-09T11:59:45.792Z,99287.71
2019-03-09T12:02:17.485Z,99287.71
2019-03-09T12:04:49.099Z,99295.09
2019-03-09T12:07:20.791Z,99295.09
2019-03-09T12:09:52.590Z,99302.86
2019-03-09T12:12:24.613Z,99300.58
2019-03-09T12:14:56.272Z,99307.59
2019-03-09T12:17:28.036Z,99313.27
2019-03-09T12:19:59.467Z,99316.02
2019-03-09T12:22:31.411Z,99316.02
2019-03-09T12:25:02.756Z,99319.05
2019-03-09T12:27:34.000Z,99328.88
2019-03-09T12:30:06.189Z,99328.91
2019-03-09T12:32:37.818Z,99334.41
2019-03-09T12:35:09.464Z,99338.38
2019-03-09T12:37:41.365Z,99336.33
2019-03-09T12:40:14.946Z,99341.98
2019-03-09T12:42:46.732Z,99342.23
2019-03-09T12:45:18.548Z,99347.24
2019-03-09T12:47:50.924Z,99357.10
2019-03-09T12:50:22.870Z,99358.15
2019-03-09T12:52:54.871Z,99366.55
2019-03-09T12:55:26.463Z,99366.55
2019-03-09T12:57:58.132Z,99366.44
2019-03-09T13:00:29.885Z,99367.16
2019-03-09T13:03:01.464Z,99370.67
2019-03-09T13:05:32.975Z,99370.67
2019-03-09T13:08:04.658Z,99368.60
2019-03-09T13:10:36.286Z,99368.09
2019-03-09T13:13:07.758Z,99368.09
2019-03-09T13:15:39.344Z,99373.73
2019-03-09T13:18:11.343Z,99373.38
2019-03-09T13:20:43.068Z,99374.95
2019-03-09T13:23:14.778Z,99380.45
2019-03-09T13:25:46.506Z,99380.45
2019-03-09T13:28:18.148Z,99386.09
2019-03-09T13:30:49.976Z,99394.13
2019-03-09T13:33:21.416Z,99397.66
2019-03-09T13:35:53.285Z,99394.43
2019-03-09T13:38:25.112Z,99394.43
2019-03-09T13:40:56.913Z,99405.34
2019-03-09T13:43:29.789Z,99406.25
2019-03-09T13:46:01.488Z,99406.25
2019-03-09T13:48:33.246Z,99413.05
2019-03-09T13:51:05.435Z,99415.91
2019-03-09T13:53:37.785Z,99422.13
2019-03-09T13:56:09.600Z,99422.13
2019-03-09T13:58:41.337Z,99420.52
2019-03-09T14:01:13.402Z,99419.66
2019-03-09T14:03:45.805Z,99418.08
2019-03-09T14:06:17.672Z,99418.08
2019-03-09T14:08:49.716Z,99421.92
2019-03-09T14:11:21.420Z,99426.97
2019-03-09T14:13:53.248Z,99426.97
2019-03-09T14:16:24.763Z,99425.30
2019-03-09T14:18:57.179Z,99430.45
2019-03-09T14:21:29.030Z,99432.00
2019-03-09T14:24:01.210Z,99432.00
2019-03-09T14:26:33.340Z,99433.09
2019-03-09T14:29:05.251Z,99437.52
2019-03-09T14:31:41.104Z,99443.02
2019-03-09T14:34:12.867Z,99455.96
2019-03-09T14:36:44.571Z,99455.96
2019-03-09T14:39:16.318Z,99457.17
2019-03-09T14:41:48.007Z,99453.20
2019-03-09T14:44:19.898Z,99463.36
2019-03-09T14:46:51.689Z,99455.94
2019-03-09T14:49:23.418Z,99455.94
2019-03-09T14:51:55.118Z,99475.22
2019-03-09T14:54:27.102Z,99475.22
2019-03-09T14:56:59.042Z,99476.11
2019-03-09T14:59:30.959Z,99488.83
2019-03-09T15:02:03.234Z,99490.77
2019-03-09T15:04:34.972Z,99490.77
2019-03-09T15:07:09.378Z,99492.77
2019-03-09T15:09:41.241Z,99490.56
2019-03-09T15:12:13.141Z,99499.03
2019-03-09T15:14:45.078Z,99501.20
2019-03-09T15:17:18.145Z,99505.05
2019-03-09T15:19:49.856Z,99506.00
2019-03-09T15:22:21.970Z,99516.06
2019-03-09T15:24:53.422Z,99516.06
2019-03-09T15:27:25.587Z,99524.71
2019-03-09T15:29:57.563Z,99525.60
2019-03-09T15:32:30.230Z,99529.88
2019-03-09T15:35:02.078Z,99535.54
2019-03-09T15:37:34.075Z,99542.25
2019-03-09T15:40:06.756Z,99542.25
2019-03-09T15:42:38.752Z,99548.19
2019-03-09T15:45:11.315Z,99548.19
2019-03-09T15:47:43.226Z,99548.22
2019-03-09T15:50:15.778Z,99548.46
2019-03-09T15:52:47.648Z,99544.36
2019-03-09T15:55:20.238Z,99548.16
2019-03-09T15:57:53.818Z,99555.93
2019-03-09T16:00:25.700Z,99550.80
2019-03-09T16:02:57.397Z,99548.31
2019-03-09T16:05:29.217Z,99555.64
2019-03-09T16:08:03.642Z,99551.67
2019-03-09T16:10:35.990Z,99551.67
2019-03-09T16:13:07.957Z,99554.40
2019-03-09T16:15:39.843Z,99557.06
2019-03-09T16:18:11.708Z,99556.78
2019-03-09T16:20:43.428Z,99549.54
2019-03-09T16:23:15.159Z,99549.54
2019-03-09T16:25:46.843Z,99552.04
2019-03-09T16:28:18.637Z,99552.04
2019-03-09T16:30:50.350Z,99550.30
2019-03-09T16:33:22.226Z,99550.30
2019-03-09T16:35:54.164Z,99551.73
2019-03-09T16:38:25.916Z,99547.56
2019-03-09T16:40:57.653Z,99543.80
2019-03-09T16:43:29.316Z,99543.80
2019-03-09T16:46:00.955Z,99551.37
2019-03-09T16:48:32.806Z,99553.35
2019-03-09T16:51:04.369Z,99553.35
2019-03-09T16:53:36.343Z,99552.02
2019-03-09T16:56:08.110Z,99554.36
2019-03-09T16:58:40.524Z,99554.36
2019-03-09T17:01:12.444Z,99543.11
2019-03-09T17:03:43.989Z,99543.11
2019-03-09T17:06:15.856Z,99554.67
2019-03-09T17:08:47.533Z,99549.31
2019-03-09T17:11:19.230Z,99554.08
2019-03-09T17:13:50.794Z,99548.65
2019-03-09T17:16:22.141Z,99551.97
2019-03-09T17:18:54.104Z,99550.45
2019-03-09T17:21:25.738Z,99550.45
2019-03-09T17:23:57.385Z,99549.91
2019-03-09T17:26:28.999Z,99552.17
2019-03-09T17:29:02.052Z,99552.17
2019-03-09T17:31:33.656Z,99543.91
2019-03-09T17:34:05.307Z,99543.91
2019-03-09T17:36:37.184Z,99551.70
2019-03-09T17:39:10.943Z,99539.67
2019-03-09T17:41:43.242Z,99545.59
2019-03-09T17:44:14.506Z,99547.09
2019-03-09T17:46:46.084Z,99542.13
2019-03-09T17:49:18.444Z,99535.48
2019-03-09T17:51:49.904Z,99535.48
2019-03-09T17:54:21.576Z,99533.22
2019-03-09T17:56:53.263Z,99532.84
2019-03-09T17:59:24.787Z,99532.84
2019-03-09T18:01:56.233Z,99537.89
2019-03-09T18:04:27.558Z,99537.89
2019-03-09T18:06:58.908Z,99531.33
2019-03-09T18:09:30.455Z,99536.20
2019-03-09T18:12:02.298Z,99529.46
2019-03-09T18:14:34.482Z,99530.39
2019-03-09T18:17:06.351Z,99536.87
2019-03-09T18:19:37.972Z,99536.87
2019-03-09T18:22:09.770Z,99535.27
2019-03-09T18:24:41.597Z,99534.71
2019-03-09T18:27:13.208Z,99527.22
2019-03-09T18:29:44.792Z,99532.55
2019-03-09T18:32:17.192Z,99534.54
2019-03-09T18:34:48.897Z,99532.59
2019-03-09T18:37:20.480Z,99532.59
2019-03-09T18:39:52.100Z,99526.33
2019-03-09T18:42:24.397Z,99522.00
2019-03-09T18:44:56.224Z,99528.11
2019-03-09T18:47:27.570Z,99528.11
2019-03-09T18:50:00.268Z,99526.03
2019-03-09T18:52:33.148Z,99522.09
2019-03-09T18:55:04.779Z,99521.23
2019-03-09T18:57:36.814Z,99521.23
2019-03-09T19:00:09.342Z,99518.22
2019-03-09T19:02:41.372Z,99518.22
2019-03-09T19:05:13.228Z,99508.50
2019-03-09T19:07:44.982Z,99508.50
2019-03-09T19:10:18.052Z,99498.30
2019-03-09T19:12:49.835Z,99497.80
2019-03-09T19:15:21.859Z,99497.80
2019-03-09T19:17:54.049Z,99507.78
2019-03-09T19:20:25.597Z,99514.77
2019-03-09T19:22:57.652Z,99514.77
2019-03-09T19:25:29.166Z,99506.09
2019-03-09T19:28:01.226Z,99506.09
2019-03-09T19:30:32.984Z,99496.46
2019-03-09T19:33:05.153Z,99496.46
2019-03-09T19:35:36.742Z,99494.03
2019-03-09T19:38:08.686Z,99497.13
2019-03-09T19:40:40.342Z,99497.13
2019-03-09T19:43:11.996Z,99491.83
2019-03-09T19:45:43.291Z,99492.91
2019-03-09T19:48:14.983Z,99492.17
2019-03-09T19:50:46.482Z,99492.17
2019-03-09T19:53:18.228Z,99483.34
2019-03-09T19:55:50.079Z,99483.34
2019-03-09T19:58:21.929Z,99473.24
2019-03-09T20:00:53.567Z,99471.41
2019-03-09T20:03:25.108Z,99477.39
2019-03-09T20:05:56.641Z,99478.80
2019-03-09T20:08:28.316Z,99473.55
2019-03-09T20:10:59.950Z,99468.89
2019-03-09T20:13:31.934Z,99468.03
2019-03-09T20:16:04.428Z,99468.03
2019-03-09T20:18:36.498Z,99467.23
2019-03-09T20:21:08.027Z,99467.23
2019-03-09T20:23:39.942Z,99468.20
2019-03-09T20:26:11.959Z,99467.92
2019-03-09T20:28:43.610Z,99463.07
2019-03-09T20:31:15.266Z,99470.42
2019-03-09T20:33:47.161Z,99464.61
2019-03-09T20:36:19.111Z,99456.79
2019-03-09T20:38:52.061Z,99456.79
2019-03-09T20:41:24.930Z,99449.94
2019-03-09T20:43:56.533Z,99449.94
2019-03-09T20:46:28.460Z,99432.52
2019-03-09T20:49:00.303Z,99435.56
2019-03-09T20:51:31.824Z,99435.56
2019-03-09T20:54:03.357Z,99423.58
2019-03-09T20:56:34.893Z,99423.58
2019-03-09T20:59:06.743Z,99418.97
2019-03-09T21:01:38.337Z,99412.42
2019-03-09T21:04:09.903Z,99406.19
2019-03-09T21:06:41.517Z,99406.19
2019-03-09T21:09:13.319Z,99408.50
2019-03-09T21:11:45.073Z,99408.65
2019-03-09T21:14:16.606Z,99407.09
2019-03-09T21:16:48.136Z,99407.09
2019-03-09T21:19:19.766Z,99400.45
2019-03-09T21:21:51.316Z,99400.45
2019-03-09T21:24:22.742Z,99396.91
2019-03-09T21:26:54.127Z,99383.77
2019-03-09T21:29:25.896Z,99381.22
2019-03-09T21:31:57.419Z,99384.61
2019-03-09T21:34:29.083Z,99382.16
2019-03-09T21:37:00.560Z,99376.23
2019-03-09T21:39:32.117Z,99377.75
2019-03-09T21:42:03.922Z,99374.09
2019-03-09T21:44:35.495Z,99379.84
2019-03-09T21:47:07.509Z,99376.45
2019-03-09T21:49:39.087Z,99374.75
2019-03-09T21:52:10.834Z,99374.75
2019-03-09T21:54:42.504Z,99357.70
2019-03-09T21:57:13.842Z,99357.70
2019-03-09T21:59:45.506Z,99361.88
2019-03-09T22:02:17.036Z,99357.26
2019-03-09T22:04:48.680Z,99347.88
2019-03-09T22:07:20.336Z,99341.30
2019-03-09T22:09:51.943Z,99352.13
2019-03-09T22:12:23.294Z,99340.74
2019-03-09T22:14:54.942Z,99336.51
2019-03-09T22:17:26.644Z,99336.51
2019-03-09T22:19:58.526Z,99341.66
2019-03-09T22:22:30.283Z,99339.05
2019-03-09T22:25:02.012Z,99338.20
2019-03-09T22:27:33.974Z,99344.06
2019-03-09T22:30:06.004Z,99345.06
2019-03-09T22:32:37.648Z,99351.41
2019-03-09T22:35:10.495Z,99351.41
2019-03-09T22:37:42.388Z,99349.80
2019-03-09T22:40:14.116Z,99367.08
2019-03-09T22:42:45.873Z,99367.08
2019-03-09T22:45:17.706Z,99368.31
2019-03-09T22:47:49.484Z,99373.59
2019-03-09T22:50:39.343Z,99378.83
2019-03-09T22:53:12.028Z,99378.83
2019-03-09T22:55:43.612Z,99373.92
2019-03-09T22:58:16.419Z,99373.92
2019-03-09T23:00:48.024Z,99369.50
2019-03-09T23:03:21.479Z,99369.50
2019-03-09T23:05:53.030Z,99378.20
2019-03-09T23:08:24.660Z,99374.35
2019-03-09T23:10:56.355Z,99376.73
2019-03-09T23:13:28.194Z,99389.19
2019-03-09T23:15:59.649Z,99389.19
2019-03-09T23:18:31.178Z,99396.75
2019-03-09T23:21:02.568Z,99405.89
2019-03-09T23:23:34.394Z,99407.73
2019-03-09T23:26:05.826Z,99411.20
2019-03-09T23:28:49.830Z,99399.89
2019-03-09T23:31:21.495Z,99399.89
2019-03-09T23:33:53.308Z,99399.16
2019-03-09T23:36:24.890Z,99393.67
2019-03-09T23:38:56.302Z,99400.88
2019-03-09T23:41:27.774Z,99407.77
2019-03-09T23:43:59.375Z,99407.77
2019-03-09T23:46:31.072Z,99409.89
2019-03-09T23:49:02.771Z,99418.38
2019-03-09T23:51:34.704Z,99413.35
2019-03-09T23:54:06.729Z,99414.05
2019-03-09T23:56:38.329Z,99415.30
2019-03-09T23:59:10.262Z,99417.68
